sensor_id;sensor_type;location;lat;lon;timestamp;P1;durP1;ratioP1;P2;durP2;ratioP2
55292;SDS011;41157;53.560;10.098;2023-04-16T00:00:47;25.40;;;15.53;;
55292;SDS011;41157;53.560;10.098;2023-04-16T00:03:16;20.83;;;16.03;;
55292;SDS011;41157;53.560;10.098;2023-04-16T00:05:43;22.93;;;14.80;;
55292;SDS011;41157;53.560;10.098;2023-04-16T00:08:10;23.77;;;15.20;;
55292;SDS011;41157;53.560;10.098;2023-04-16T00:10:37;23.30;;;15.43;;
55292;SDS011;41157;53.560;10.098;2023-04-16T00:13:04;22.37;;;14.57;;
55292;SDS011;41157;53.560;10.098;2023-04-16T00:15:31;20.10;;;14.37;;
55292;SDS011;41157;53.560;10.098;2023-04-16T00:17:58;22.00;;;14.70;;
55292;SDS011;41157;53.560;10.098;2023-04-16T00:20:26;23.63;;;14.87;;
55292;SDS011;41157;53.560;10.098;2023-04-16T00:22:53;23.77;;;14.47;;
55292;SDS011;41157;53.560;10.098;2023-04-16T00:25:20;21.97;;;14.93;;
55292;SDS011;41157;53.560;10.098;2023-04-16T00:27:47;20.80;;;14.53;;
55292;SDS011;41157;53.560;10.098;2023-04-16T00:30:14;25.20;;;15.27;;
55292;SDS011;41157;53.560;10.098;2023-04-16T00:32:41;22.07;;;14.40;;
55292;SDS011;41157;53.560;10.098;2023-04-16T00:35:08;20.80;;;14.67;;
55292;SDS011;41157;53.560;10.098;2023-04-16T00:37:37;27.90;;;14.67;;
55292;SDS011;41157;53.560;10.098;2023-04-16T00:40:04;21.70;;;14.57;;
55292;SDS011;41157;53.560;10.098;2023-04-16T00:42:32;21.87;;;15.13;;
55292;SDS011;41157;53.560;10.098;2023-04-16T00:45:01;25.23;;;14.23;;
55292;SDS011;41157;53.560;10.098;2023-04-16T00:47:28;26.83;;;15.17;;
55292;SDS011;41157;53.560;10.098;2023-04-16T00:49:55;24.00;;;14.33;;
55292;SDS011;41157;53.560;10.098;2023-04-16T00:52:22;20.60;;;14.83;;
55292;SDS011;41157;53.560;10.098;2023-04-16T00:54:50;21.30;;;14.47;;
55292;SDS011;41157;53.560;10.098;2023-04-16T00:57:18;20.60;;;13.70;;
55292;SDS011;41157;53.560;10.098;2023-04-16T00:59:47;25.60;;;14.80;;
55292;SDS011;41157;53.560;10.098;2023-04-16T01:02:14;21.73;;;14.43;;
55292;SDS011;41157;53.560;10.098;2023-04-16T01:04:41;20.70;;;13.70;;
55292;SDS011;41157;53.560;10.098;2023-04-16T01:07:08;22.37;;;14.37;;
55292;SDS011;41157;53.560;10.098;2023-04-16T01:09:36;23.33;;;14.73;;
55292;SDS011;41157;53.560;10.098;2023-04-16T01:12:04;19.73;;;12.80;;
55292;SDS011;41157;53.560;10.098;2023-04-16T01:14:31;21.53;;;13.93;;
55292;SDS011;41157;53.560;10.098;2023-04-16T01:17:00;22.33;;;13.97;;
55292;SDS011;41157;53.560;10.098;2023-04-16T01:19:27;16.50;;;13.07;;
55292;SDS011;41157;53.560;10.098;2023-04-16T01:21:56;17.97;;;13.10;;
55292;SDS011;41157;53.560;10.098;2023-04-16T01:24:23;21.87;;;13.83;;
55292;SDS011;41157;53.560;10.098;2023-04-16T01:26:50;24.97;;;13.47;;
55292;SDS011;41157;53.560;10.098;2023-04-16T01:29:17;21.23;;;13.67;;
55292;SDS011;41157;53.560;10.098;2023-04-16T01:31:44;22.30;;;14.40;;
55292;SDS011;41157;53.560;10.098;2023-04-16T01:34:11;18.63;;;13.57;;
55292;SDS011;41157;53.560;10.098;2023-04-16T01:36:38;23.10;;;13.37;;
55292;SDS011;41157;53.560;10.098;2023-04-16T01:39:06;20.90;;;14.07;;
55292;SDS011;41157;53.560;10.098;2023-04-16T01:41:35;19.73;;;12.87;;
55292;SDS011;41157;53.560;10.098;2023-04-16T01:44:02;19.23;;;13.37;;
55292;SDS011;41157;53.560;10.098;2023-04-16T01:46:30;19.47;;;13.10;;
55292;SDS011;41157;53.560;10.098;2023-04-16T01:48:57;17.27;;;13.10;;
55292;SDS011;41157;53.560;10.098;2023-04-16T01:51:25;19.87;;;13.27;;
55292;SDS011;41157;53.560;10.098;2023-04-16T01:53:52;20.20;;;13.27;;
55292;SDS011;41157;53.560;10.098;2023-04-16T01:56:20;19.80;;;12.67;;
55292;SDS011;41157;53.560;10.098;2023-04-16T01:58:47;17.20;;;12.90;;
55292;SDS011;41157;53.560;10.098;2023-04-16T02:01:14;19.30;;;12.83;;
55292;SDS011;41157;53.560;10.098;2023-04-16T02:03:41;21.53;;;12.60;;
55292;SDS011;41157;53.560;10.098;2023-04-16T02:06:08;16.47;;;12.13;;
55292;SDS011;41157;53.560;10.098;2023-04-16T02:08:35;19.53;;;12.07;;
55292;SDS011;41157;53.560;10.098;2023-04-16T02:11:02;15.53;;;12.37;;
55292;SDS011;41157;53.560;10.098;2023-04-16T02:13:31;19.13;;;12.07;;
55292;SDS011;41157;53.560;10.098;2023-04-16T02:15:58;20.47;;;13.20;;
55292;SDS011;41157;53.560;10.098;2023-04-16T02:18:25;17.20;;;12.77;;
55292;SDS011;41157;53.560;10.098;2023-04-16T02:20:52;22.50;;;12.87;;
55292;SDS011;41157;53.560;10.098;2023-04-16T02:23:19;22.93;;;12.43;;
55292;SDS011;41157;53.560;10.098;2023-04-16T02:25:46;17.60;;;12.53;;
55292;SDS011;41157;53.560;10.098;2023-04-16T02:28:14;16.73;;;12.47;;
55292;SDS011;41157;53.560;10.098;2023-04-16T02:30:42;18.67;;;11.77;;
55292;SDS011;41157;53.560;10.098;2023-04-16T02:33:10;20.03;;;12.90;;
55292;SDS011;41157;53.560;10.098;2023-04-16T02:35:37;17.70;;;12.33;;
55292;SDS011;41157;53.560;10.098;2023-04-16T02:38:05;21.03;;;12.53;;
55292;SDS011;41157;53.560;10.098;2023-04-16T02:40:32;20.27;;;12.47;;
55292;SDS011;41157;53.560;10.098;2023-04-16T02:42:59;16.93;;;11.97;;
55292;SDS011;41157;53.560;10.098;2023-04-16T02:45:26;18.60;;;12.67;;
55292;SDS011;41157;53.560;10.098;2023-04-16T02:47:56;16.50;;;13.10;;
55292;SDS011;41157;53.560;10.098;2023-04-16T02:50:24;16.17;;;12.23;;
55292;SDS011;41157;53.560;10.098;2023-04-16T02:52:51;18.40;;;12.53;;
55292;SDS011;41157;53.560;10.098;2023-04-16T02:55:18;20.50;;;13.10;;
55292;SDS011;41157;53.560;10.098;2023-04-16T02:57:45;15.60;;;12.43;;
55292;SDS011;41157;53.560;10.098;2023-04-16T03:00:12;15.37;;;12.03;;
55292;SDS011;41157;53.560;10.098;2023-04-16T03:02:40;17.90;;;12.30;;
55292;SDS011;41157;53.560;10.098;2023-04-16T03:05:08;17.93;;;12.47;;
55292;SDS011;41157;53.560;10.098;2023-04-16T03:07:36;19.70;;;13.63;;
55292;SDS011;41157;53.560;10.098;2023-04-16T03:10:05;19.83;;;13.53;;
55292;SDS011;41157;53.560;10.098;2023-04-16T03:12:32;18.73;;;13.43;;
55292;SDS011;41157;53.560;10.098;2023-04-16T03:14:59;22.37;;;14.13;;
55292;SDS011;41157;53.560;10.098;2023-04-16T03:17:27;20.77;;;12.87;;
55292;SDS011;41157;53.560;10.098;2023-04-16T03:19:54;17.83;;;13.60;;
55292;SDS011;41157;53.560;10.098;2023-04-16T03:22:22;22.30;;;13.30;;
55292;SDS011;41157;53.560;10.098;2023-04-16T03:24:49;21.33;;;13.17;;
55292;SDS011;41157;53.560;10.098;2023-04-16T03:27:16;22.07;;;12.90;;
55292;SDS011;41157;53.560;10.098;2023-04-16T03:29:43;18.40;;;12.93;;
55292;SDS011;41157;53.560;10.098;2023-04-16T03:32:10;18.47;;;12.53;;
55292;SDS011;41157;53.560;10.098;2023-04-16T03:34:37;19.40;;;12.53;;
55292;SDS011;41157;53.560;10.098;2023-04-16T03:37:04;22.60;;;13.73;;
55292;SDS011;41157;53.560;10.098;2023-04-16T03:39:35;20.67;;;13.37;;
55292;SDS011;41157;53.560;10.098;2023-04-16T03:42:02;17.83;;;12.93;;
55292;SDS011;41157;53.560;10.098;2023-04-16T03:44:29;16.37;;;12.43;;
55292;SDS011;41157;53.560;10.098;2023-04-16T03:46:56;17.20;;;12.97;;
55292;SDS011;41157;53.560;10.098;2023-04-16T03:49:23;20.67;;;13.40;;
55292;SDS011;41157;53.560;10.098;2023-04-16T03:51:50;18.97;;;13.60;;
55292;SDS011;41157;53.560;10.098;2023-04-16T03:54:17;23.37;;;13.10;;
55292;SDS011;41157;53.560;10.098;2023-04-16T03:56:46;17.90;;;13.00;;
55292;SDS011;41157;53.560;10.098;2023-04-16T03:59:13;18.77;;;12.83;;
55292;SDS011;41157;53.560;10.098;2023-04-16T04:01:40;22.70;;;13.50;;
55292;SDS011;41157;53.560;10.098;2023-04-16T04:04:07;17.73;;;13.10;;
55292;SDS011;41157;53.560;10.098;2023-04-16T04:06:34;18.80;;;13.33;;
55292;SDS011;41157;53.560;10.098;2023-04-16T04:09:01;23.03;;;14.00;;
55292;SDS011;41157;53.560;10.098;2023-04-16T04:11:28;17.17;;;13.30;;
55292;SDS011;41157;53.560;10.098;2023-04-16T04:13:56;23.20;;;13.60;;
55292;SDS011;41157;53.560;10.098;2023-04-16T04:16:23;21.20;;;14.20;;
55292;SDS011;41157;53.560;10.098;2023-04-16T04:18:50;24.73;;;14.17;;
55292;SDS011;41157;53.560;10.098;2023-04-16T04:21:17;20.83;;;14.03;;
55292;SDS011;41157;53.560;10.098;2023-04-16T04:23:44;21.93;;;13.87;;
55292;SDS011;41157;53.560;10.098;2023-04-16T04:26:11;21.40;;;14.23;;
55292;SDS011;41157;53.560;10.098;2023-04-16T04:28:38;20.80;;;15.30;;
55292;SDS011;41157;53.560;10.098;2023-04-16T04:31:07;21.50;;;14.83;;
55292;SDS011;41157;53.560;10.098;2023-04-16T04:33:34;22.00;;;13.53;;
55292;SDS011;41157;53.560;10.098;2023-04-16T04:36:01;19.80;;;14.47;;
55292;SDS011;41157;53.560;10.098;2023-04-16T04:38:28;17.97;;;14.80;;
55292;SDS011;41157;53.560;10.098;2023-04-16T04:40:55;19.30;;;14.13;;
55292;SDS011;41157;53.560;10.098;2023-04-16T04:43:22;21.80;;;14.47;;
55292;SDS011;41157;53.560;10.098;2023-04-16T04:45:49;21.10;;;14.63;;
55292;SDS011;41157;53.560;10.098;2023-04-16T04:48:17;21.53;;;14.70;;
55292;SDS011;41157;53.560;10.098;2023-04-16T04:50:50;26.00;;;15.70;;
55292;SDS011;41157;53.560;10.098;2023-04-16T04:53:17;21.00;;;14.70;;
55292;SDS011;41157;53.560;10.098;2023-04-16T04:55:44;23.07;;;14.67;;
55292;SDS011;41157;53.560;10.098;2023-04-16T04:58:11;25.37;;;15.33;;
55292;SDS011;41157;53.560;10.098;2023-04-16T05:00:38;22.50;;;15.53;;
55292;SDS011;41157;53.560;10.098;2023-04-16T05:03:05;23.00;;;16.23;;
55292;SDS011;41157;53.560;10.098;2023-04-16T05:05:33;22.23;;;14.70;;
55292;SDS011;41157;53.560;10.098;2023-04-16T05:08:00;24.10;;;15.20;;
55292;SDS011;41157;53.560;10.098;2023-04-16T05:10:27;25.10;;;15.93;;
55292;SDS011;41157;53.560;10.098;2023-04-16T05:12:54;19.73;;;14.77;;
55292;SDS011;41157;53.560;10.098;2023-04-16T05:15:21;19.43;;;14.90;;
55292;SDS011;41157;53.560;10.098;2023-04-16T05:17:48;20.00;;;14.50;;
55292;SDS011;41157;53.560;10.098;2023-04-16T05:20:15;23.30;;;15.40;;
55292;SDS011;41157;53.560;10.098;2023-04-16T05:22:44;22.53;;;14.90;;
55292;SDS011;41157;53.560;10.098;2023-04-16T05:25:11;21.63;;;14.47;;
55292;SDS011;41157;53.560;10.098;2023-04-16T05:27:38;21.73;;;15.37;;
55292;SDS011;41157;53.560;10.098;2023-04-16T05:30:06;18.50;;;14.93;;
55292;SDS011;41157;53.560;10.098;2023-04-16T05:32:33;21.13;;;15.53;;
55292;SDS011;41157;53.560;10.098;2023-04-16T05:35:00;20.27;;;14.43;;
55292;SDS011;41157;53.560;10.098;2023-04-16T05:37:27;22.57;;;14.33;;
55292;SDS011;41157;53.560;10.098;2023-04-16T05:39:55;18.93;;;14.03;;
55292;SDS011;41157;53.560;10.098;2023-04-16T05:42:22;22.17;;;14.63;;
55292;SDS011;41157;53.560;10.098;2023-04-16T05:44:49;21.33;;;15.10;;
55292;SDS011;41157;53.560;10.098;2023-04-16T05:47:16;17.57;;;15.00;;
55292;SDS011;41157;53.560;10.098;2023-04-16T05:49:43;19.60;;;14.33;;
55292;SDS011;41157;53.560;10.098;2023-04-16T05:52:10;18.87;;;13.93;;
55292;SDS011;41157;53.560;10.098;2023-04-16T05:54:38;19.40;;;14.67;;
55292;SDS011;41157;53.560;10.098;2023-04-16T05:57:06;24.13;;;15.53;;
55292;SDS011;41157;53.560;10.098;2023-04-16T05:59:33;19.97;;;15.20;;
55292;SDS011;41157;53.560;10.098;2023-04-16T06:02:00;18.73;;;14.53;;
55292;SDS011;41157;53.560;10.098;2023-04-16T06:04:27;23.30;;;15.33;;
55292;SDS011;41157;53.560;10.098;2023-04-16T06:06:55;28.97;;;16.20;;
55292;SDS011;41157;53.560;10.098;2023-04-16T06:09:22;20.73;;;14.37;;
55292;SDS011;41157;53.560;10.098;2023-04-16T06:11:49;19.23;;;14.90;;
55292;SDS011;41157;53.560;10.098;2023-04-16T06:14:17;22.50;;;16.20;;
55292;SDS011;41157;53.560;10.098;2023-04-16T06:16:44;24.00;;;16.47;;
55292;SDS011;41157;53.560;10.098;2023-04-16T06:19:11;18.43;;;15.20;;
55292;SDS011;41157;53.560;10.098;2023-04-16T06:21:38;20.53;;;15.40;;
55292;SDS011;41157;53.560;10.098;2023-04-16T06:24:05;20.77;;;15.23;;
55292;SDS011;41157;53.560;10.098;2023-04-16T06:26:32;20.17;;;14.40;;
55292;SDS011;41157;53.560;10.098;2023-04-16T06:28:59;20.33;;;14.73;;
55292;SDS011;41157;53.560;10.098;2023-04-16T06:31:27;22.10;;;15.50;;
55292;SDS011;41157;53.560;10.098;2023-04-16T06:33:55;19.23;;;14.93;;
55292;SDS011;41157;53.560;10.098;2023-04-16T06:36:22;21.73;;;14.83;;
55292;SDS011;41157;53.560;10.098;2023-04-16T06:38:51;21.13;;;15.00;;
55292;SDS011;41157;53.560;10.098;2023-04-16T06:41:17;24.57;;;15.13;;
55292;SDS011;41157;53.560;10.098;2023-04-16T06:43:46;21.80;;;15.10;;
55292;SDS011;41157;53.560;10.098;2023-04-16T06:46:13;20.47;;;14.47;;
55292;SDS011;41157;53.560;10.098;2023-04-16T06:48:42;23.03;;;15.27;;
55292;SDS011;41157;53.560;10.098;2023-04-16T06:51:09;24.20;;;15.87;;
55292;SDS011;41157;53.560;10.098;2023-04-16T06:53:37;20.20;;;15.53;;
55292;SDS011;41157;53.560;10.098;2023-04-16T06:56:04;26.20;;;15.77;;
55292;SDS011;41157;53.560;10.098;2023-04-16T06:58:31;20.47;;;14.80;;
55292;SDS011;41157;53.560;10.098;2023-04-16T07:00:58;21.00;;;15.30;;
55292;SDS011;41157;53.560;10.098;2023-04-16T07:03:26;22.50;;;15.07;;
55292;SDS011;41157;53.560;10.098;2023-04-16T07:05:55;21.90;;;15.17;;
55292;SDS011;41157;53.560;10.098;2023-04-16T07:08:22;21.00;;;14.17;;
55292;SDS011;41157;53.560;10.098;2023-04-16T07:10:49;19.90;;;14.60;;
55292;SDS011;41157;53.560;10.098;2023-04-16T07:13:17;22.57;;;14.57;;
55292;SDS011;41157;53.560;10.098;2023-04-16T07:15:44;17.40;;;14.53;;
55292;SDS011;41157;53.560;10.098;2023-04-16T07:18:11;21.23;;;14.67;;
55292;SDS011;41157;53.560;10.098;2023-04-16T07:20:38;21.40;;;13.83;;
55292;SDS011;41157;53.560;10.098;2023-04-16T07:23:07;26.77;;;14.90;;
55292;SDS011;41157;53.560;10.098;2023-04-16T07:25:34;22.50;;;14.73;;
55292;SDS011;41157;53.560;10.098;2023-04-16T07:28:01;28.10;;;15.30;;
55292;SDS011;41157;53.560;10.098;2023-04-16T07:30:28;17.03;;;13.43;;
55292;SDS011;41157;53.560;10.098;2023-04-16T07:32:58;20.27;;;13.63;;
55292;SDS011;41157;53.560;10.098;2023-04-16T07:35:25;20.03;;;14.47;;
55292;SDS011;41157;53.560;10.098;2023-04-16T07:37:52;21.40;;;14.20;;
55292;SDS011;41157;53.560;10.098;2023-04-16T07:40:20;20.53;;;14.33;;
55292;SDS011;41157;53.560;10.098;2023-04-16T07:42:47;23.97;;;14.13;;
55292;SDS011;41157;53.560;10.098;2023-04-16T07:45:14;21.00;;;12.87;;
55292;SDS011;41157;53.560;10.098;2023-04-16T07:47:41;18.03;;;12.80;;
55292;SDS011;41157;53.560;10.098;2023-04-16T07:50:09;25.47;;;13.10;;
55292;SDS011;41157;53.560;10.098;2023-04-16T07:52:36;18.37;;;13.53;;
55292;SDS011;41157;53.560;10.098;2023-04-16T07:55:05;17.97;;;12.77;;
55292;SDS011;41157;53.560;10.098;2023-04-16T07:57:34;18.93;;;13.40;;
55292;SDS011;41157;53.560;10.098;2023-04-16T08:00:01;20.97;;;12.90;;
55292;SDS011;41157;53.560;10.098;2023-04-16T08:02:29;19.53;;;13.90;;
55292;SDS011;41157;53.560;10.098;2023-04-16T08:04:56;19.77;;;12.33;;
55292;SDS011;41157;53.560;10.098;2023-04-16T08:07:23;18.37;;;12.57;;
55292;SDS011;41157;53.560;10.098;2023-04-16T08:09:50;19.07;;;13.17;;
55292;SDS011;41157;53.560;10.098;2023-04-16T08:12:18;18.43;;;12.13;;
55292;SDS011;41157;53.560;10.098;2023-04-16T08:14:46;16.77;;;12.17;;
55292;SDS011;41157;53.560;10.098;2023-04-16T08:17:14;17.47;;;12.40;;
55292;SDS011;41157;53.560;10.098;2023-04-16T08:19:41;17.23;;;13.03;;
55292;SDS011;41157;53.560;10.098;2023-04-16T08:22:09;17.03;;;11.83;;
55292;SDS011;41157;53.560;10.098;2023-04-16T08:24:36;20.53;;;14.60;;
55292;SDS011;41157;53.560;10.098;2023-04-16T08:27:03;19.07;;;14.47;;
55292;SDS011;41157;53.560;10.098;2023-04-16T08:29:30;14.67;;;11.33;;
55292;SDS011;41157;53.560;10.098;2023-04-16T08:31:59;16.53;;;12.10;;
55292;SDS011;41157;53.560;10.098;2023-04-16T08:34:26;19.70;;;12.17;;
55292;SDS011;41157;53.560;10.098;2023-04-16T08:36:53;16.33;;;11.90;;
55292;SDS011;41157;53.560;10.098;2023-04-16T08:39:20;20.00;;;12.47;;
55292;SDS011;41157;53.560;10.098;2023-04-16T08:41:47;16.83;;;11.97;;
55292;SDS011;41157;53.560;10.098;2023-04-16T08:44:17;15.53;;;11.60;;
55292;SDS011;41157;53.560;10.098;2023-04-16T08:46:45;17.93;;;10.90;;
55292;SDS011;41157;53.560;10.098;2023-04-16T08:49:15;15.40;;;11.90;;
55292;SDS011;41157;53.560;10.098;2023-04-16T08:51:44;18.93;;;12.07;;
55292;SDS011;41157;53.560;10.098;2023-04-16T08:54:13;15.60;;;11.70;;
55292;SDS011;41157;53.560;10.098;2023-04-16T08:56:40;16.50;;;12.20;;
55292;SDS011;41157;53.560;10.098;2023-04-16T08:59:07;15.57;;;12.00;;
55292;SDS011;41157;53.560;10.098;2023-04-16T09:01:35;14.13;;;11.23;;
55292;SDS011;41157;53.560;10.098;2023-04-16T09:04:03;16.73;;;11.63;;
55292;SDS011;41157;53.560;10.098;2023-04-16T09:06:33;14.23;;;12.17;;
55292;SDS011;41157;53.560;10.098;2023-04-16T09:09:00;16.10;;;11.73;;
55292;SDS011;41157;53.560;10.098;2023-04-16T09:11:28;16.37;;;11.80;;
55292;SDS011;41157;53.560;10.098;2023-04-16T09:13:56;14.80;;;11.73;;
55292;SDS011;41157;53.560;10.098;2023-04-16T09:16:23;16.30;;;11.37;;
55292;SDS011;41157;53.560;10.098;2023-04-16T09:18:50;18.50;;;11.73;;
55292;SDS011;41157;53.560;10.098;2023-04-16T09:21:17;17.33;;;11.90;;
55292;SDS011;41157;53.560;10.098;2023-04-16T09:23:47;14.27;;;11.93;;
55292;SDS011;41157;53.560;10.098;2023-04-16T09:26:14;15.73;;;11.43;;
55292;SDS011;41157;53.560;10.098;2023-04-16T09:28:42;16.20;;;11.53;;
55292;SDS011;41157;53.560;10.098;2023-04-16T09:31:09;15.57;;;11.37;;
55292;SDS011;41157;53.560;10.098;2023-04-16T09:33:36;15.40;;;11.53;;
55292;SDS011;41157;53.560;10.098;2023-04-16T09:36:04;18.17;;;11.63;;
55292;SDS011;41157;53.560;10.098;2023-04-16T09:38:48;12.67;;;10.57;;
55292;SDS011;41157;53.560;10.098;2023-04-16T09:41:16;16.00;;;11.30;;
55292;SDS011;41157;53.560;10.098;2023-04-16T09:43:52;14.40;;;10.87;;
55292;SDS011;41157;53.560;10.098;2023-04-16T09:46:21;14.40;;;10.60;;
55292;SDS011;41157;53.560;10.098;2023-04-16T09:48:48;13.70;;;11.07;;
55292;SDS011;41157;53.560;10.098;2023-04-16T09:51:15;13.23;;;11.07;;
55292;SDS011;41157;53.560;10.098;2023-04-16T09:53:42;13.27;;;9.73;;
55292;SDS011;41157;53.560;10.098;2023-04-16T09:56:11;14.67;;;11.33;;
55292;SDS011;41157;53.560;10.098;2023-04-16T09:58:38;13.33;;;10.90;;
55292;SDS011;41157;53.560;10.098;2023-04-16T10:01:06;15.27;;;10.90;;
55292;SDS011;41157;53.560;10.098;2023-04-16T10:03:35;12.77;;;10.10;;
55292;SDS011;41157;53.560;10.098;2023-04-16T10:06:13;15.07;;;10.90;;
55292;SDS011;41157;53.560;10.098;2023-04-16T10:08:41;15.00;;;10.33;;
55292;SDS011;41157;53.560;10.098;2023-04-16T10:11:11;15.10;;;10.83;;
55292;SDS011;41157;53.560;10.098;2023-04-16T10:13:38;13.07;;;10.50;;
55292;SDS011;41157;53.560;10.098;2023-04-16T10:16:05;14.60;;;10.80;;
55292;SDS011;41157;53.560;10.098;2023-04-16T10:18:33;14.67;;;11.03;;
55292;SDS011;41157;53.560;10.098;2023-04-16T10:21:02;13.47;;;10.73;;
55292;SDS011;41157;53.560;10.098;2023-04-16T10:23:29;16.63;;;10.07;;
55292;SDS011;41157;53.560;10.098;2023-04-16T10:25:57;11.80;;;9.40;;
55292;SDS011;41157;53.560;10.098;2023-04-16T10:28:26;13.50;;;9.90;;
55292;SDS011;41157;53.560;10.098;2023-04-16T10:30:54;16.17;;;10.73;;
55292;SDS011;41157;53.560;10.098;2023-04-16T10:33:25;13.50;;;9.33;;
55292;SDS011;41157;53.560;10.098;2023-04-16T10:36:05;13.53;;;10.07;;
55292;SDS011;41157;53.560;10.098;2023-04-16T10:38:32;16.13;;;10.10;;
55292;SDS011;41157;53.560;10.098;2023-04-16T10:41:00;13.53;;;9.97;;
55292;SDS011;41157;53.560;10.098;2023-04-16T10:43:29;11.53;;;8.73;;
55292;SDS011;41157;53.560;10.098;2023-04-16T10:45:56;10.23;;;9.13;;
55292;SDS011;41157;53.560;10.098;2023-04-16T10:48:23;9.20;;;7.50;;
55292;SDS011;41157;53.560;10.098;2023-04-16T10:50:54;9.77;;;7.70;;
55292;SDS011;41157;53.560;10.098;2023-04-16T10:53:23;9.10;;;7.87;;
55292;SDS011;41157;53.560;10.098;2023-04-16T10:55:57;10.43;;;7.77;;
55292;SDS011;41157;53.560;10.098;2023-04-16T10:58:26;8.23;;;7.40;;
55292;SDS011;41157;53.560;10.098;2023-04-16T11:00:54;9.67;;;7.73;;
55292;SDS011;41157;53.560;10.098;2023-04-16T11:03:21;10.03;;;7.80;;
55292;SDS011;41157;53.560;10.098;2023-04-16T11:05:48;11.63;;;8.00;;
55292;SDS011;41157;53.560;10.098;2023-04-16T11:08:15;12.37;;;8.40;;
55292;SDS011;41157;53.560;10.098;2023-04-16T11:10:42;10.80;;;8.73;;
55292;SDS011;41157;53.560;10.098;2023-04-16T11:13:09;11.50;;;9.57;;
55292;SDS011;41157;53.560;10.098;2023-04-16T11:15:38;11.23;;;9.17;;
55292;SDS011;41157;53.560;10.098;2023-04-16T11:18:06;13.90;;;9.33;;
55292;SDS011;41157;53.560;10.098;2023-04-16T11:20:34;14.37;;;9.53;;
55292;SDS011;41157;53.560;10.098;2023-04-16T11:23:09;13.10;;;9.07;;
55292;SDS011;41157;53.560;10.098;2023-04-16T11:25:37;15.53;;;9.50;;
55292;SDS011;41157;53.560;10.098;2023-04-16T11:28:04;12.47;;;9.50;;
55292;SDS011;41157;53.560;10.098;2023-04-16T11:30:31;11.77;;;9.63;;
55292;SDS011;41157;53.560;10.098;2023-04-16T11:33:01;11.03;;;9.83;;
55292;SDS011;41157;53.560;10.098;2023-04-16T11:35:29;11.63;;;9.97;;
55292;SDS011;41157;53.560;10.098;2023-04-16T11:37:56;14.30;;;9.73;;
55292;SDS011;41157;53.560;10.098;2023-04-16T11:40:24;11.70;;;9.03;;
55292;SDS011;41157;53.560;10.098;2023-04-16T11:42:54;13.40;;;9.87;;
55292;SDS011;41157;53.560;10.098;2023-04-16T11:45:21;14.33;;;10.00;;
55292;SDS011;41157;53.560;10.098;2023-04-16T11:47:49;11.73;;;9.40;;
55292;SDS011;41157;53.560;10.098;2023-04-16T11:50:17;13.40;;;9.20;;
55292;SDS011;41157;53.560;10.098;2023-04-16T11:52:46;13.50;;;8.33;;
55292;SDS011;41157;53.560;10.098;2023-04-16T11:55:13;9.47;;;7.83;;
55292;SDS011;41157;53.560;10.098;2023-04-16T11:57:40;12.57;;;8.07;;
55292;SDS011;41157;53.560;10.098;2023-04-16T12:00:08;15.00;;;8.97;;
55292;SDS011;41157;53.560;10.098;2023-04-16T12:02:37;10.93;;;8.53;;
55292;SDS011;41157;53.560;10.098;2023-04-16T12:05:05;10.70;;;8.17;;
55292;SDS011;41157;53.560;10.098;2023-04-16T12:07:42;11.47;;;8.87;;
55292;SDS011;41157;53.560;10.098;2023-04-16T12:10:11;10.57;;;8.27;;
55292;SDS011;41157;53.560;10.098;2023-04-16T12:12:38;11.20;;;8.53;;
55292;SDS011;41157;53.560;10.098;2023-04-16T12:15:05;12.10;;;9.03;;
55292;SDS011;41157;53.560;10.098;2023-04-16T12:17:33;11.53;;;8.87;;
55292;SDS011;41157;53.560;10.098;2023-04-16T12:20:01;11.70;;;8.40;;
55292;SDS011;41157;53.560;10.098;2023-04-16T12:22:30;9.37;;;8.03;;
55292;SDS011;41157;53.560;10.098;2023-04-16T12:24:59;10.57;;;7.87;;
55292;SDS011;41157;53.560;10.098;2023-04-16T12:27:40;11.10;;;7.80;;
55292;SDS011;41157;53.560;10.098;2023-04-16T12:30:09;8.73;;;7.70;;
55292;SDS011;41157;53.560;10.098;2023-04-16T12:32:37;11.73;;;7.60;;
55292;SDS011;41157;53.560;10.098;2023-04-16T12:35:04;9.63;;;7.80;;
55292;SDS011;41157;53.560;10.098;2023-04-16T12:37:31;9.23;;;8.07;;
55292;SDS011;41157;53.560;10.098;2023-04-16T12:39:59;10.63;;;8.13;;
55292;SDS011;41157;53.560;10.098;2023-04-16T12:42:27;10.37;;;8.33;;
55292;SDS011;41157;53.560;10.098;2023-04-16T12:45:01;11.40;;;8.90;;
55292;SDS011;41157;53.560;10.098;2023-04-16T12:47:28;9.50;;;8.03;;
55292;SDS011;41157;53.560;10.098;2023-04-16T12:49:55;8.87;;;7.83;;
55292;SDS011;41157;53.560;10.098;2023-04-16T12:52:22;9.60;;;7.97;;
55292;SDS011;41157;53.560;10.098;2023-04-16T12:54:49;10.87;;;8.17;;
55292;SDS011;41157;53.560;10.098;2023-04-16T12:57:16;13.20;;;8.87;;
55292;SDS011;41157;53.560;10.098;2023-04-16T12:59:43;11.13;;;8.23;;
55292;SDS011;41157;53.560;10.098;2023-04-16T13:02:12;9.43;;;8.00;;
55292;SDS011;41157;53.560;10.098;2023-04-16T13:04:39;14.60;;;8.80;;
55292;SDS011;41157;53.560;10.098;2023-04-16T13:07:06;11.67;;;9.10;;
55292;SDS011;41157;53.560;10.098;2023-04-16T13:09:33;10.70;;;8.73;;
55292;SDS011;41157;53.560;10.098;2023-04-16T13:12:00;12.63;;;9.33;;
55292;SDS011;41157;53.560;10.098;2023-04-16T13:14:27;13.97;;;9.23;;
55292;SDS011;41157;53.560;10.098;2023-04-16T13:16:54;13.53;;;9.83;;
55292;SDS011;41157;53.560;10.098;2023-04-16T13:19:23;13.60;;;9.50;;
55292;SDS011;41157;53.560;10.098;2023-04-16T13:21:50;13.27;;;9.80;;
55292;SDS011;41157;53.560;10.098;2023-04-16T13:24:17;13.13;;;9.13;;
55292;SDS011;41157;53.560;10.098;2023-04-16T13:26:44;12.57;;;9.20;;
55292;SDS011;41157;53.560;10.098;2023-04-16T13:29:11;12.27;;;9.37;;
55292;SDS011;41157;53.560;10.098;2023-04-16T13:31:38;13.90;;;8.77;;
55292;SDS011;41157;53.560;10.098;2023-04-16T13:34:05;13.13;;;8.73;;
55292;SDS011;41157;53.560;10.098;2023-04-16T13:36:34;14.37;;;9.80;;
55292;SDS011;41157;53.560;10.098;2023-04-16T13:39:01;13.37;;;9.73;;
55292;SDS011;41157;53.560;10.098;2023-04-16T13:41:28;15.80;;;9.80;;
55292;SDS011;41157;53.560;10.098;2023-04-16T13:43:55;11.90;;;9.80;;
55292;SDS011;41157;53.560;10.098;2023-04-16T13:46:22;14.53;;;9.80;;
55292;SDS011;41157;53.560;10.098;2023-04-16T13:48:51;13.93;;;9.53;;
55292;SDS011;41157;53.560;10.098;2023-04-16T13:51:18;21.27;;;11.00;;
55292;SDS011;41157;53.560;10.098;2023-04-16T13:53:47;14.97;;;9.70;;
55292;SDS011;41157;53.560;10.098;2023-04-16T13:56:13;13.87;;;10.17;;
55292;SDS011;41157;53.560;10.098;2023-04-16T13:58:41;12.67;;;9.77;;
55292;SDS011;41157;53.560;10.098;2023-04-16T14:01:08;15.40;;;9.67;;
55292;SDS011;41157;53.560;10.098;2023-04-16T14:03:35;14.37;;;9.70;;
55292;SDS011;41157;53.560;10.098;2023-04-16T14:06:04;17.07;;;10.73;;
55292;SDS011;41157;53.560;10.098;2023-04-16T14:08:31;12.77;;;9.83;;
55292;SDS011;41157;53.560;10.098;2023-04-16T14:11:00;13.70;;;10.20;;
55292;SDS011;41157;53.560;10.098;2023-04-16T14:13:27;12.37;;;9.80;;
55292;SDS011;41157;53.560;10.098;2023-04-16T14:15:54;14.37;;;9.67;;